sensor_id;sensor_type;location;lat;lon;timestamp;temperature;humidity
74811;DHT22;63340;48.404;-4.506;2023-03-14T00:00:13;12.23;70.32
74811;DHT22;63340;48.404;-4.506;2023-03-14T00:02:39;12.18;70.70
74811;DHT22;63340;48.404;-4.506;2023-03-14T00:05:05;12.26;70.99
74811;DHT22;63340;48.404;-4.506;2023-03-14T00:07:39;12.17;70.22
74811;DHT22;63340;48.404;-4.506;2023-03-14T00:10:10;12.13;70.23
74811;DHT22;63340;48.404;-4.506;2023-03-14T00:12:36;12.14;70.34
74811;DHT22;63340;48.404;-4.506;2023-03-14T00:15:02;12.17;69.97
74811;DHT22;63340;48.404;-4.506;2023-03-14T00:17:29;12.16;69.72
74811;DHT22;63340;48.404;-4.506;2023-03-14T00:19:54;12.20;69.98
74811;DHT22;63340;48.404;-4.506;2023-03-14T00:22:20;12.24;69.69
74811;DHT22;63340;48.404;-4.506;2023-03-14T00:24:46;12.28;69.54
74811;DHT22;63340;48.404;-4.506;2023-03-14T00:27:11;12.28;69.15
74811;DHT22;63340;48.404;-4.506;2023-03-14T00:29:36;12.23;67.86
74811;DHT22;63340;48.404;-4.506;2023-03-14T00:32:02;12.13;67.70
74811;DHT22;63340;48.404;-4.506;2023-03-14T00:34:33;12.16;67.77
74811;DHT22;63340;48.404;-4.506;2023-03-14T00:36:58;12.07;67.65
74811;DHT22;63340;48.404;-4.506;2023-03-14T00:39:24;12.10;67.57
74811;DHT22;63340;48.404;-4.506;2023-03-14T00:41:49;12.01;67.21
74811;DHT22;63340;48.404;-4.506;2023-03-14T00:44:15;12.06;67.82
74811;DHT22;63340;48.404;-4.506;2023-03-14T00:46:40;12.03;67.70
74811;DHT22;63340;48.404;-4.506;2023-03-14T00:49:05;12.06;68.30
74811;DHT22;63340;48.404;-4.506;2023-03-14T00:51:31;12.03;67.91
74811;DHT22;63340;48.404;-4.506;2023-03-14T00:53:56;12.04;68.12
74811;DHT22;63340;48.404;-4.506;2023-03-14T00:56:22;12.04;67.70
74811;DHT22;63340;48.404;-4.506;2023-03-14T00:58:47;12.00;66.84
74811;DHT22;63340;48.404;-4.506;2023-03-14T01:01:15;11.94;66.25
74811;DHT22;63340;48.404;-4.506;2023-03-14T01:03:42;11.90;65.75
74811;DHT22;63340;48.404;-4.506;2023-03-14T01:06:15;11.78;65.59
74811;DHT22;63340;48.404;-4.506;2023-03-14T01:08:41;11.82;65.84
74811;DHT22;63340;48.404;-4.506;2023-03-14T01:11:10;11.83;65.92
74811;DHT22;63340;48.404;-4.506;2023-03-14T01:13:36;11.80;64.14
74811;DHT22;63340;48.404;-4.506;2023-03-14T01:16:07;11.82;64.03
74811;DHT22;63340;48.404;-4.506;2023-03-14T01:18:34;11.75;64.35
74811;DHT22;63340;48.404;-4.506;2023-03-14T01:21:01;11.70;63.81
74811;DHT22;63340;48.404;-4.506;2023-03-14T01:23:27;11.72;64.44
74811;DHT22;63340;48.404;-4.506;2023-03-14T01:25:52;11.73;63.99
74811;DHT22;63340;48.404;-4.506;2023-03-14T01:28:18;11.82;65.20
74811;DHT22;63340;48.404;-4.506;2023-03-14T01:30:43;11.70;64.61
74811;DHT22;63340;48.404;-4.506;2023-03-14T01:33:08;11.59;64.86
74811;DHT22;63340;48.404;-4.506;2023-03-14T01:35:34;11.49;64.45
74811;DHT22;63340;48.404;-4.506;2023-03-14T01:37:59;11.43;64.20
74811;DHT22;63340;48.404;-4.506;2023-03-14T01:40:25;11.46;62.99
74811;DHT22;63340;48.404;-4.506;2023-03-14T01:43:13;11.45;62.01
74811;DHT22;63340;48.404;-4.506;2023-03-14T01:51:05;11.45;61.77
74811;DHT22;63340;48.404;-4.506;2023-03-14T01:53:31;11.43;61.02
74811;DHT22;63340;48.404;-4.506;2023-03-14T01:55:57;11.41;61.80
74811;DHT22;63340;48.404;-4.506;2023-03-14T01:58:24;11.34;62.44
74811;DHT22;63340;48.404;-4.506;2023-03-14T02:00:52;11.39;62.27
74811;DHT22;63340;48.404;-4.506;2023-03-14T02:03:20;11.28;62.93
74811;DHT22;63340;48.404;-4.506;2023-03-14T02:05:48;11.18;64.08
74811;DHT22;63340;48.404;-4.506;2023-03-14T02:08:18;10.97;65.24
74811;DHT22;63340;48.404;-4.506;2023-03-14T02:10:46;11.01;65.95
74811;DHT22;63340;48.404;-4.506;2023-03-14T02:13:14;11.06;65.89
74811;DHT22;63340;48.404;-4.506;2023-03-14T02:15:40;11.06;65.21
74811;DHT22;63340;48.404;-4.506;2023-03-14T02:18:06;11.11;65.22
74811;DHT22;63340;48.404;-4.506;2023-03-14T02:20:42;11.18;64.72
74811;DHT22;63340;48.404;-4.506;2023-03-14T02:23:10;11.24;64.39
74811;DHT22;63340;48.404;-4.506;2023-03-14T02:25:41;11.25;64.72
74811;DHT22;63340;48.404;-4.506;2023-03-14T02:28:09;11.34;65.45
74811;DHT22;63340;48.404;-4.506;2023-03-14T02:30:34;11.41;64.51
74811;DHT22;63340;48.404;-4.506;2023-03-14T02:33:07;11.41;62.65
74811;DHT22;63340;48.404;-4.506;2023-03-14T02:35:47;11.46;61.58
74811;DHT22;63340;48.404;-4.506;2023-03-14T02:38:21;11.42;60.60
74811;DHT22;63340;48.404;-4.506;2023-03-14T02:40:49;11.35;59.62
74811;DHT22;63340;48.404;-4.506;2023-03-14T02:43:14;11.35;57.74
74811;DHT22;63340;48.404;-4.506;2023-03-14T02:45:45;11.45;59.04
74811;DHT22;63340;48.404;-4.506;2023-03-14T02:48:15;11.51;57.02
74811;DHT22;63340;48.404;-4.506;2023-03-14T02:50:41;11.45;57.11
74811;DHT22;63340;48.404;-4.506;2023-03-14T02:53:07;11.38;56.05
74811;DHT22;63340;48.404;-4.506;2023-03-14T02:55:33;11.48;57.64
74811;DHT22;63340;48.404;-4.506;2023-03-14T02:57:58;11.41;56.37
74811;DHT22;63340;48.404;-4.506;2023-03-14T03:00:24;11.30;56.01
74811;DHT22;63340;48.404;-4.506;2023-03-14T03:02:49;11.28;56.61
74811;DHT22;63340;48.404;-4.506;2023-03-14T03:05:15;11.32;56.86
74811;DHT22;63340;48.404;-4.506;2023-03-14T03:07:40;11.36;58.67
74811;DHT22;63340;48.404;-4.506;2023-03-14T03:10:06;11.27;59.46
74811;DHT22;63340;48.404;-4.506;2023-03-14T03:12:32;11.21;60.78
74811;DHT22;63340;48.404;-4.506;2023-03-14T03:14:57;11.03;62.05
74811;DHT22;63340;48.404;-4.506;2023-03-14T03:17:23;11.03;61.29
74811;DHT22;63340;48.404;-4.506;2023-03-14T03:19:48;10.90;63.02
74811;DHT22;63340;48.404;-4.506;2023-03-14T03:22:13;10.76;64.19
74811;DHT22;63340;48.404;-4.506;2023-03-14T03:24:39;10.77;64.93
74811;DHT22;63340;48.404;-4.506;2023-03-14T03:27:04;10.80;64.86
74811;DHT22;63340;48.404;-4.506;2023-03-14T03:29:30;10.79;65.29
74811;DHT22;63340;48.404;-4.506;2023-03-14T03:31:55;10.76;65.53
74811;DHT22;63340;48.404;-4.506;2023-03-14T03:34:21;10.73;65.50
74811;DHT22;63340;48.404;-4.506;2023-03-14T03:36:46;10.77;65.23
74811;DHT22;63340;48.404;-4.506;2023-03-14T03:39:12;10.79;64.96
74811;DHT22;63340;48.404;-4.506;2023-03-14T03:41:37;10.77;62.70
74811;DHT22;63340;48.404;-4.506;2023-03-14T03:44:03;10.76;62.71
74811;DHT22;63340;48.404;-4.506;2023-03-14T03:46:28;10.79;61.49
74811;DHT22;63340;48.404;-4.506;2023-03-14T03:48:55;10.80;60.97
74811;DHT22;63340;48.404;-4.506;2023-03-14T03:51:20;10.81;60.83
74811;DHT22;63340;48.404;-4.506;2023-03-14T03:53:46;10.80;61.86
74811;DHT22;63340;48.404;-4.506;2023-03-14T03:56:11;10.79;62.10
74811;DHT22;63340;48.404;-4.506;2023-03-14T03:58:37;10.76;61.52
74811;DHT22;63340;48.404;-4.506;2023-03-14T04:01:04;10.74;61.83
74811;DHT22;63340;48.404;-4.506;2023-03-14T04:03:30;10.77;61.90
74811;DHT22;63340;48.404;-4.506;2023-03-14T04:06:04;10.76;61.19
74811;DHT22;63340;48.404;-4.506;2023-03-14T04:08:30;10.80;60.10
74811;DHT22;63340;48.404;-4.506;2023-03-14T04:10:57;10.84;58.17
74811;DHT22;63340;48.404;-4.506;2023-03-14T04:13:23;10.96;59.50
74811;DHT22;63340;48.404;-4.506;2023-03-14T04:15:49;10.99;57.42
74811;DHT22;63340;48.404;-4.506;2023-03-14T04:18:15;10.97;57.42
74811;DHT22;63340;48.404;-4.506;2023-03-14T04:20:40;11.04;58.98
74811;DHT22;63340;48.404;-4.506;2023-03-14T04:23:05;10.96;59.52
74811;DHT22;63340;48.404;-4.506;2023-03-14T04:25:31;11.00;60.70
74811;DHT22;63340;48.404;-4.506;2023-03-14T04:27:56;10.93;62.44
74811;DHT22;63340;48.404;-4.506;2023-03-14T04:30:22;10.94;62.97
74811;DHT22;63340;48.404;-4.506;2023-03-14T04:32:47;10.96;62.95
74811;DHT22;63340;48.404;-4.506;2023-03-14T04:35:13;10.87;60.92
74811;DHT22;63340;48.404;-4.506;2023-03-14T04:37:38;10.81;60.44
74811;DHT22;63340;48.404;-4.506;2023-03-14T04:40:04;10.85;60.87
74811;DHT22;63340;48.404;-4.506;2023-03-14T04:42:31;10.81;60.76
74811;DHT22;63340;48.404;-4.506;2023-03-14T04:44:57;10.69;60.37
74811;DHT22;63340;48.404;-4.506;2023-03-14T04:47:23;10.70;60.62
74811;DHT22;63340;48.404;-4.506;2023-03-14T04:49:48;10.65;61.36
74811;DHT22;63340;48.404;-4.506;2023-03-14T04:52:13;10.60;62.10
74811;DHT22;63340;48.404;-4.506;2023-03-14T04:54:39;10.63;61.63
74811;DHT22;63340;48.404;-4.506;2023-03-14T04:57:04;10.65;61.23
74811;DHT22;63340;48.404;-4.506;2023-03-14T04:59:30;10.66;59.99
74811;DHT22;63340;48.404;-4.506;2023-03-14T05:01:55;10.72;58.87
74811;DHT22;63340;48.404;-4.506;2023-03-14T05:04:20;10.70;59.26
74811;DHT22;63340;48.404;-4.506;2023-03-14T05:06:46;10.79;59.06
74811;DHT22;63340;48.404;-4.506;2023-03-14T05:09:11;10.72;59.10
74811;DHT22;63340;48.404;-4.506;2023-03-14T05:11:37;10.74;59.77
74811;DHT22;63340;48.404;-4.506;2023-03-14T05:14:02;10.73;59.43
74811;DHT22;63340;48.404;-4.506;2023-03-14T05:16:28;10.67;58.88
74811;DHT22;63340;48.404;-4.506;2023-03-14T05:18:53;10.74;59.37
74811;DHT22;63340;48.404;-4.506;2023-03-14T05:21:19;10.79;59.30
74811;DHT22;63340;48.404;-4.506;2023-03-14T05:23:44;10.89;60.28
74811;DHT22;63340;48.404;-4.506;2023-03-14T05:26:10;10.89;59.79
74811;DHT22;63340;48.404;-4.506;2023-03-14T05:28:35;10.84;60.20
74811;DHT22;63340;48.404;-4.506;2023-03-14T05:31:06;10.85;60.43
74811;DHT22;63340;48.404;-4.506;2023-03-14T05:33:32;10.73;60.41
74811;DHT22;63340;48.404;-4.506;2023-03-14T05:36:00;10.81;61.25
74811;DHT22;63340;48.404;-4.506;2023-03-14T05:38:25;10.81;61.77
74811;DHT22;63340;48.404;-4.506;2023-03-14T05:40:51;10.83;61.17
74811;DHT22;63340;48.404;-4.506;2023-03-14T05:43:16;10.96;61.75
74811;DHT22;63340;48.404;-4.506;2023-03-14T05:45:42;10.96;61.33
74811;DHT22;63340;48.404;-4.506;2023-03-14T05:48:08;11.00;61.64
74811;DHT22;63340;48.404;-4.506;2023-03-14T05:50:34;11.13;61.85
74811;DHT22;63340;48.404;-4.506;2023-03-14T05:52:59;11.10;61.23
74811;DHT22;63340;48.404;-4.506;2023-03-14T05:55:24;10.94;60.89
74811;DHT22;63340;48.404;-4.506;2023-03-14T05:57:50;10.97;60.90
74811;DHT22;63340;48.404;-4.506;2023-03-14T06:00:16;10.97;60.95
74811;DHT22;63340;48.404;-4.506;2023-03-14T06:02:41;11.08;61.18
74811;DHT22;63340;48.404;-4.506;2023-03-14T06:05:07;11.14;61.38
74811;DHT22;63340;48.404;-4.506;2023-03-14T06:07:33;11.20;61.43
74811;DHT22;63340;48.404;-4.506;2023-03-14T06:09:58;11.20;61.10
74811;DHT22;63340;48.404;-4.506;2023-03-14T06:12:24;11.14;60.51
74811;DHT22;63340;48.404;-4.506;2023-03-14T06:14:49;11.11;60.56
74811;DHT22;63340;48.404;-4.506;2023-03-14T06:17:15;11.17;60.26
74811;DHT22;63340;48.404;-4.506;2023-03-14T06:19:40;11.20;60.05
74811;DHT22;63340;48.404;-4.506;2023-03-14T06:22:06;11.15;59.96
74811;DHT22;63340;48.404;-4.506;2023-03-14T06:24:31;11.24;59.03
74811;DHT22;63340;48.404;-4.506;2023-03-14T06:26:56;11.11;59.01
74811;DHT22;63340;48.404;-4.506;2023-03-14T06:29:22;11.11;59.36
74811;DHT22;63340;48.404;-4.506;2023-03-14T06:31:48;11.08;59.40
74811;DHT22;63340;48.404;-4.506;2023-03-14T06:34:13;11.08;59.68
74811;DHT22;63340;48.404;-4.506;2023-03-14T06:36:39;11.06;59.87
74811;DHT22;63340;48.404;-4.506;2023-03-14T06:39:04;11.10;59.06
74811;DHT22;63340;48.404;-4.506;2023-03-14T06:41:30;11.07;59.31
74811;DHT22;63340;48.404;-4.506;2023-03-14T06:43:55;10.99;59.21
74811;DHT22;63340;48.404;-4.506;2023-03-14T06:46:20;11.07;60.10
74811;DHT22;63340;48.404;-4.506;2023-03-14T06:48:46;11.07;59.68
74811;DHT22;63340;48.404;-4.506;2023-03-14T06:51:11;11.13;59.83
74811;DHT22;63340;48.404;-4.506;2023-03-14T06:53:37;11.17;60.09
74811;DHT22;63340;48.404;-4.506;2023-03-14T06:56:03;11.21;60.40
74811;DHT22;63340;48.404;-4.506;2023-03-14T06:58:28;10.96;64.18
74811;DHT22;63340;48.404;-4.506;2023-03-14T07:00:54;10.89;64.91
74811;DHT22;63340;48.404;-4.506;2023-03-14T07:03:20;10.85;65.01
74811;DHT22;63340;48.404;-4.506;2023-03-14T07:05:45;10.89;64.64
74811;DHT22;63340;48.404;-4.506;2023-03-14T07:08:11;10.93;64.48
74811;DHT22;63340;48.404;-4.506;2023-03-14T07:10:36;10.84;63.42
74811;DHT22;63340;48.404;-4.506;2023-03-14T07:13:02;10.89;63.83
74811;DHT22;63340;48.404;-4.506;2023-03-14T07:15:27;10.92;63.97
74811;DHT22;63340;48.404;-4.506;2023-03-14T07:17:53;10.93;63.61
74811;DHT22;63340;48.404;-4.506;2023-03-14T07:20:18;10.92;63.36
74811;DHT22;63340;48.404;-4.506;2023-03-14T07:22:47;10.93;63.27
74811;DHT22;63340;48.404;-4.506;2023-03-14T07:25:13;10.96;63.10
74811;DHT22;63340;48.404;-4.506;2023-03-14T07:27:39;10.94;62.70
74811;DHT22;63340;48.404;-4.506;2023-03-14T07:30:05;10.87;62.51
74811;DHT22;63340;48.404;-4.506;2023-03-14T07:32:30;10.94;62.60
74811;DHT22;63340;48.404;-4.506;2023-03-14T07:34:56;11.07;62.56
74811;DHT22;63340;48.404;-4.506;2023-03-14T07:37:21;11.15;60.90
74811;DHT22;63340;48.404;-4.506;2023-03-14T07:39:47;11.25;61.31
74811;DHT22;63340;48.404;-4.506;2023-03-14T07:42:12;11.18;60.72
74811;DHT22;63340;48.404;-4.506;2023-03-14T07:44:40;11.25;60.79
74811;DHT22;63340;48.404;-4.506;2023-03-14T07:47:06;11.41;61.30
74811;DHT22;63340;48.404;-4.506;2023-03-14T07:49:31;11.41;60.62
74811;DHT22;63340;48.404;-4.506;2023-03-14T07:51:57;11.46;60.67
74811;DHT22;63340;48.404;-4.506;2023-03-14T07:54:23;11.57;60.90
74811;DHT22;63340;48.404;-4.506;2023-03-14T07:56:50;11.65;60.10
74811;DHT22;63340;48.404;-4.506;2023-03-14T07:59:15;11.73;60.06
74811;DHT22;63340;48.404;-4.506;2023-03-14T08:01:41;11.75;59.58
74811;DHT22;63340;48.404;-4.506;2023-03-14T08:04:06;11.80;59.28
74811;DHT22;63340;48.404;-4.506;2023-03-14T08:06:31;11.86;57.84
74811;DHT22;63340;48.404;-4.506;2023-03-14T08:08:57;11.94;57.30
74811;DHT22;63340;48.404;-4.506;2023-03-14T08:11:25;12.00;56.34
74811;DHT22;63340;48.404;-4.506;2023-03-14T08:13:50;11.93;54.09
74811;DHT22;63340;48.404;-4.506;2023-03-14T08:16:17;12.10;55.65
74811;DHT22;63340;48.404;-4.506;2023-03-14T08:18:43;12.10;54.39
74811;DHT22;63340;48.404;-4.506;2023-03-14T08:21:08;12.20;54.08
74811;DHT22;63340;48.404;-4.506;2023-03-14T08:23:34;12.26;54.43
74811;DHT22;63340;48.404;-4.506;2023-03-14T08:25:59;12.37;54.57
74811;DHT22;63340;48.404;-4.506;2023-03-14T08:28:25;12.41;55.61
74811;DHT22;63340;48.404;-4.506;2023-03-14T08:30:56;12.41;55.20
74811;DHT22;63340;48.404;-4.506;2023-03-14T08:33:21;12.40;55.90
74811;DHT22;63340;48.404;-4.506;2023-03-14T08:35:46;12.21;53.65
74811;DHT22;63340;48.404;-4.506;2023-03-14T08:38:12;12.12;51.84
74811;DHT22;63340;48.404;-4.506;2023-03-14T08:40:37;12.00;51.14
74811;DHT22;63340;48.404;-4.506;2023-03-14T08:43:03;11.96;51.67
74811;DHT22;63340;48.404;-4.506;2023-03-14T08:45:28;12.03;52.58
74811;DHT22;63340;48.404;-4.506;2023-03-14T08:47:53;11.93;53.13
74811;DHT22;63340;48.404;-4.506;2023-03-14T08:50:19;12.03;53.76
74811;DHT22;63340;48.404;-4.506;2023-03-14T08:52:44;12.13;54.23
74811;DHT22;63340;48.404;-4.506;2023-03-14T08:55:10;12.31;54.76
74811;DHT22;63340;48.404;-4.506;2023-03-14T08:57:35;12.41;54.23
74811;DHT22;63340;48.404;-4.506;2023-03-14T09:00:04;12.40;54.60
74811;DHT22;63340;48.404;-4.506;2023-03-14T09:02:36;12.55;54.71
74811;DHT22;63340;48.404;-4.506;2023-03-14T09:05:01;12.61;53.74
74811;DHT22;63340;48.404;-4.506;2023-03-14T09:07:27;12.75;53.90
74811;DHT22;63340;48.404;-4.506;2023-03-14T09:09:52;12.78;51.56
74811;DHT22;63340;48.404;-4.506;2023-03-14T09:12:18;12.82;52.30
74811;DHT22;63340;48.404;-4.506;2023-03-14T09:14:43;12.81;53.67
74811;DHT22;63340;48.404;-4.506;2023-03-14T09:17:08;12.71;52.69
74811;DHT22;63340;48.404;-4.506;2023-03-14T09:19:34;12.81;53.64
74811;DHT22;63340;48.404;-4.506;2023-03-14T09:21:59;12.81;53.61
74811;DHT22;63340;48.404;-4.506;2023-03-14T09:24:25;12.79;53.92
74811;DHT22;63340;48.404;-4.506;2023-03-14T09:26:50;12.85;53.82
74811;DHT22;63340;48.404;-4.506;2023-03-14T09:29:16;12.82;54.08
74811;DHT22;63340;48.404;-4.506;2023-03-14T09:31:41;12.91;54.32
74811;DHT22;63340;48.404;-4.506;2023-03-14T09:34:07;12.88;54.43
74811;DHT22;63340;48.404;-4.506;2023-03-14T09:36:32;12.92;54.39
74811;DHT22;63340;48.404;-4.506;2023-03-14T09:38:57;13.05;54.62
74811;DHT22;63340;48.404;-4.506;2023-03-14T09:44:05;12.81;52.68
74811;DHT22;63340;48.404;-4.506;2023-03-14T09:46:35;12.89;53.19
74811;DHT22;63340;48.404;-4.506;2023-03-14T09:49:02;12.95;53.53
74811;DHT22;63340;48.404;-4.506;2023-03-14T09:51:28;12.97;53.79
74811;DHT22;63340;48.404;-4.506;2023-03-14T09:53:54;12.68;53.29
74811;DHT22;63340;48.404;-4.506;2023-03-14T09:56:23;12.82;54.20
74811;DHT22;63340;48.404;-4.506;2023-03-14T09:59:02;12.81;54.78
74811;DHT22;63340;48.404;-4.506;2023-03-14T10:01:31;12.88;54.86
74811;DHT22;63340;48.404;-4.506;2023-03-14T10:04:00;12.84;54.75
74811;DHT22;63340;48.404;-4.506;2023-03-14T10:06:27;12.86;55.29
74811;DHT22;63340;48.404;-4.506;2023-03-14T10:08:54;12.82;55.93
74811;DHT22;63340;48.404;-4.506;2023-03-14T10:11:20;12.88;55.69
74811;DHT22;63340;48.404;-4.506;2023-03-14T10:13:50;12.79;55.47
74811;DHT22;63340;48.404;-4.506;2023-03-14T10:16:15;12.88;55.91
74811;DHT22;63340;48.404;-4.506;2023-03-14T10:18:45;12.97;55.14
74811;DHT22;63340;48.404;-4.506;2023-03-14T10:21:21;13.02;54.78
74811;DHT22;63340;48.404;-4.506;2023-03-14T10:23:50;13.10;53.58
74811;DHT22;63340;48.404;-4.506;2023-03-14T10:26:18;13.00;52.27
74811;DHT22;63340;48.404;-4.506;2023-03-14T10:28:52;13.07;51.82
74811;DHT22;63340;48.404;-4.506;2023-03-14T10:31:18;13.09;51.44
74811;DHT22;63340;48.404;-4.506;2023-03-14T10:34:01;13.20;53.56
74811;DHT22;63340;48.404;-4.506;2023-03-14T10:36:29;13.22;52.11
74811;DHT22;63340;48.404;-4.506;2023-03-14T10:41:47;13.36;53.32
74811;DHT22;63340;48.404;-4.506;2023-03-14T10:44:14;13.39;52.52
74811;DHT22;63340;48.404;-4.506;2023-03-14T10:46:42;13.30;52.91
74811;DHT22;63340;48.404;-4.506;2023-03-14T10:49:26;13.27;53.46
74811;DHT22;63340;48.404;-4.506;2023-03-14T10:51:52;13.30;53.39
74811;DHT22;63340;48.404;-4.506;2023-03-14T10:54:22;13.19;53.62
74811;DHT22;63340;48.404;-4.506;2023-03-14T10:56:59;13.32;55.29
74811;DHT22;63340;48.404;-4.506;2023-03-14T10:59:36;13.43;55.93
74811;DHT22;63340;48.404;-4.506;2023-03-14T11:02:15;13.53;56.21
74811;DHT22;63340;48.404;-4.506;2023-03-14T11:07:42;13.62;54.51
74811;DHT22;63340;48.404;-4.506;2023-03-14T11:10:30;13.60;53.41
74811;DHT22;63340;48.404;-4.506;2023-03-14T11:13:15;13.70;54.15
74811;DHT22;63340;48.404;-4.506;2023-03-14T11:21:20;13.77;54.04
74811;DHT22;63340;48.404;-4.506;2023-03-14T11:29:40;13.58;51.61
74811;DHT22;63340;48.404;-4.506;2023-03-14T11:34:54;13.47;52.61
74811;DHT22;63340;48.404;-4.506;2023-03-14T11:37:51;13.48;52.67
74811;DHT22;63340;48.404;-4.506;2023-03-14T11:40:20;13.51;53.16
74811;DHT22;63340;48.404;-4.506;2023-03-14T11:42:53;13.65;53.50
74811;DHT22;63340;48.404;-4.506;2023-03-14T11:45:25;13.82;53.62
74811;DHT22;63340;48.404;-4.506;2023-03-14T11:48:14;13.78;51.93
74811;DHT22;63340;48.404;-4.506;2023-03-14T11:50:43;13.78;51.33
74811;DHT22;63340;48.404;-4.506;2023-03-14T11:53:17;13.77;52.52
74811;DHT22;63340;48.404;-4.506;2023-03-14T11:55:44;13.78;51.30
74811;DHT22;63340;48.404;-4.506;2023-03-14T11:58:27;13.83;51.76
74811;DHT22;63340;48.404;-4.506;2023-03-14T12:00:55;13.74;51.80
74811;DHT22;63340;48.404;-4.506;2023-03-14T12:03:42;13.70;51.52
74811;DHT22;63340;48.404;-4.506;2023-03-14T12:06:20;13.68;51.92
74811;DHT22;63340;48.404;-4.506;2023-03-14T12:08:53;13.48;50.44
74811;DHT22;63340;48.404;-4.506;2023-03-14T12:14:29;13.33;49.48
74811;DHT22;63340;48.404;-4.506;2023-03-14T12:17:04;13.57;50.31
74811;DHT22;63340;48.404;-4.506;2023-03-14T12:19:32;13.75;50.52
74811;DHT22;63340;48.404;-4.506;2023-03-14T12:24:47;13.86;49.53
74811;DHT22;63340;48.404;-4.506;2023-03-14T12:27:44;13.82;48.92
74811;DHT22;63340;48.404;-4.506;2023-03-14T12:38:00;14.06;49.73
74811;DHT22;63340;48.404;-4.506;2023-03-14T12:40:39;14.15;48.65
74811;DHT22;63340;48.404;-4.506;2023-03-14T12:43:30;14.12;49.41
74811;DHT22;63340;48.404;-4.506;2023-03-14T12:51:19;14.36;50.45
74811;DHT22;63340;48.404;-4.506;2023-03-14T12:53:57;14.47;50.91
74811;DHT22;63340;48.404;-4.506;2023-03-14T13:04:31;14.28;49.50
74811;DHT22;63340;48.404;-4.506;2023-03-14T13:06:59;14.25;49.88
74811;DHT22;63340;48.404;-4.506;2023-03-14T13:11:52;14.33;48.31
74811;DHT22;63340;48.404;-4.506;2023-03-14T13:14:18;14.36;48.18
74811;DHT22;63340;48.404;-4.506;2023-03-14T13:16:44;14.36;49.62
74811;DHT22;63340;48.404;-4.506;2023-03-14T13:19:18;14.46;50.44
74811;DHT22;63340;48.404;-4.506;2023-03-14T13:21:44;14.47;49.61
74811;DHT22;63340;48.404;-4.506;2023-03-14T13:24:24;14.39;49.94
74811;DHT22;63340;48.404;-4.506;2023-03-14T13:26:53;14.37;49.91
74811;DHT22;63340;48.404;-4.506;2023-03-14T13:29:21;14.18;49.81
74811;DHT22;63340;48.404;-4.506;2023-03-14T13:31:50;14.13;50.92
74811;DHT22;63340;48.404;-4.506;2023-03-14T13:34:17;14.29;50.45
74811;DHT22;63340;48.404;-4.506;2023-03-14T13:36:42;14.34;50.28
74811;DHT22;63340;48.404;-4.506;2023-03-14T13:39:13;14.32;49.54
74811;DHT22;63340;48.404;-4.506;2023-03-14T13:41:43;14.30;49.86
74811;DHT22;63340;48.404;-4.506;2023-03-14T13:44:33;14.39;49.17
74811;DHT22;63340;48.404;-4.506;2023-03-14T13:47:00;14.47;48.58
74811;DHT22;63340;48.404;-4.506;2023-03-14T13:49:28;14.49;48.02
74811;DHT22;63340;48.404;-4.506;2023-03-14T13:51:56;14.46;48.34
74811;DHT22;63340;48.404;-4.506;2023-03-14T13:54:22;14.43;49.16
74811;DHT22;63340;48.404;-4.506;2023-03-14T13:56:48;14.41;50.21
74811;DHT22;63340;48.404;-4.506;2023-03-14T13:59:40;14.37;47.89
74811;DHT22;63340;48.404;-4.506;2023-03-14T14:02:15;14.37;48.72
74811;DHT22;63340;48.404;-4.506;2023-03-14T14:04:40;14.33;48.98
74811;DHT22;63340;48.404;-4.506;2023-03-14T14:07:15;14.28;47.56
74811;DHT22;63340;48.404;-4.506;2023-03-14T14:09:46;14.30;48.58
74811;DHT22;63340;48.404;-4.506;2023-03-14T14:12:16;14.37;49.08
74811;DHT22;63340;48.404;-4.506;2023-03-14T14:14:56;14.44;47.75
74811;DHT22;63340;48.404;-4.506;2023-03-14T14:20:02;14.41;49.03
74811;DHT22;63340;48.404;-4.506;2023-03-14T14:22:30;14.49;49.02
74811;DHT22;63340;48.404;-4.506;2023-03-14T14:24:56;14.43;48.62
74811;DHT22;63340;48.404;-4.506;2023-03-14T14:27:37;14.37;48.48
74811;DHT22;63340;48.404;-4.506;2023-03-14T14:30:28;14.36;49.15
74811;DHT22;63340;48.404;-4.506;2023-03-14T14:33:10;14.49;49.45
74811;DHT22;63340;48.404;-4.506;2023-03-14T14:35:36;14.56;49.18
74811;DHT22;63340;48.404;-4.506;2023-03-14T14:38:02;14.60;48.66
74811;DHT22;63340;48.404;-4.506;2023-03-14T14:40:44;14.60;48.54
74811;DHT22;63340;48.404;-4.506;2023-03-14T14:43:14;14.50;47.60
74811;DHT22;63340;48.404;-4.506;2023-03-14T14:45:42;14.47;47.73
74811;DHT22;63340;48.404;-4.506;2023-03-14T14:48:23;14.44;49.26
74811;DHT22;63340;48.404;-4.506;2023-03-14T14:51:03;14.44;48.73
74811;DHT22;63340;48.404;-4.506;2023-03-14T14:53:35;14.36;47.74
74811;DHT22;63340;48.404;-4.506;2023-03-14T14:56:27;14.34;48.13
74811;DHT22;63340;48.404;-4.506;2023-03-14T14:59:01;14.29;47.97
74811;DHT22;63340;48.404;-4.506;2023-03-14T15:01:37;14.19;48.54
74811;DHT22;63340;48.404;-4.506;2023-03-14T15:04:14;14.12;48.73
74811;DHT22;63340;48.404;-4.506;2023-03-14T15:06:43;14.06;48.32
74811;DHT22;63340;48.404;-4.506;2023-03-14T15:09:13;14.13;49.83
74811;DHT22;63340;48.404;-4.506;2023-03-14T15:11:39;14.18;48.92
74811;DHT22;63340;48.404;-4.506;2023-03-14T15:14:05;14.28;49.47
74811;DHT22;63340;48.404;-4.506;2023-03-14T15:16:32;14.32;50.43
74811;DHT22;63340;48.404;-4.506;2023-03-14T15:19:05;14.41;50.51
74811;DHT22;63340;48.404;-4.506;2023-03-14T15:21:33;14.49;49.65
74811;DHT22;63340;48.404;-4.506;2023-03-14T15:23:59;14.47;49.31
74811;DHT22;63340;48.404;-4.506;2023-03-14T15:26:27;14.49;49.34
74811;DHT22;63340;48.404;-4.506;2023-03-14T15:28:55;14.57;48.24
74811;DHT22;63340;48.404;-4.506;2023-03-14T15:31:25;14.71;49.19
74811;DHT22;63340;48.404;-4.506;2023-03-14T15:34:03;14.68;46.86
74811;DHT22;63340;48.404;-4.506;2023-03-14T15:36:33;14.63;47.18
74811;DHT22;63340;48.404;-4.506;2023-03-14T15:38:59;14.57;47.15
74811;DHT22;63340;48.404;-4.506;2023-03-14T15:41:43;14.61;48.97
74811;DHT22;63340;48.404;-4.506;2023-03-14T15:44:09;14.74;49.09
74811;DHT22;63340;48.404;-4.506;2023-03-14T15:46:35;14.85;47.66
74811;DHT22;63340;48.404;-4.506;2023-03-14T15:49:00;14.89;47.50
74811;DHT22;63340;48.404;-4.506;2023-03-14T15:51:25;14.94;47.46
74811;DHT22;63340;48.404;-4.506;2023-03-14T15:53:51;15.01;47.25
74811;DHT22;63340;48.404;-4.506;2023-03-14T15:56:18;14.92;46.94
74811;DHT22;63340;48.404;-4.506;2023-03-14T15:58:44;14.98;47.22
74811;DHT22;63340;48.404;-4.506;2023-03-14T16:01:12;14.94;45.44
74811;DHT22;63340;48.404;-4.506;2023-03-14T16:03:37;14.95;47.67
74811;DHT22;63340;48.404;-4.506;2023-03-14T16:06:04;14.94;47.48
74811;DHT22;63340;48.404;-4.506;2023-03-14T16:08:29;14.99;47.23
74811;DHT22;63340;48.404;-4.506;2023-03-14T16:10:57;14.99;47.44
74811;DHT22;63340;48.404;-4.506;2023-03-14T16:13:23;15.15;47.72
74811;DHT22;63340;48.404;-4.506;2023-03-14T16:15:57;15.24;48.33
74811;DHT22;63340;48.404;-4.506;2023-03-14T16:18:23;15.25;47.93
74811;DHT22;63340;48.404;-4.506;2023-03-14T16:20:53;15.32;48.72